sensor_id;sensor_type;location;lat;lon;timestamp;P1;durP1;ratioP1;P2;durP2;ratioP2
55672;SDS011;41554;45.366;20.400;2022-10-26T00:01:09;12.98;;;9.65;;
55672;SDS011;41554;45.366;20.400;2022-10-26T00:03:36;9.85;;;8.60;;
55672;SDS011;41554;45.366;20.400;2022-10-26T00:08:31;12.50;;;9.35;;
55672;SDS011;41554;45.366;20.400;2022-10-26T00:10:57;13.48;;;9.05;;
55672;SDS011;41554;45.366;20.400;2022-10-26T00:13:23;11.13;;;9.50;;
55672;SDS011;41554;45.366;20.400;2022-10-26T00:15:49;9.13;;;7.95;;
55672;SDS011;41554;45.366;20.400;2022-10-26T00:18:16;18.27;;;9.35;;
55672;SDS011;41554;45.366;20.400;2022-10-26T00:20:42;28.55;;;8.38;;
55672;SDS011;41554;45.366;20.400;2022-10-26T00:23:08;9.15;;;8.20;;
55672;SDS011;41554;45.366;20.400;2022-10-26T00:25:34;25.17;;;9.88;;
55672;SDS011;41554;45.366;20.400;2022-10-26T00:28:00;34.05;;;8.32;;
55672;SDS011;41554;45.366;20.400;2022-10-26T00:30:26;10.45;;;8.55;;
55672;SDS011;41554;45.366;20.400;2022-10-26T00:32:52;8.20;;;7.35;;
55672;SDS011;41554;45.366;20.400;2022-10-26T00:35:18;22.77;;;5.38;;
55672;SDS011;41554;45.366;20.400;2022-10-26T00:37:44;30.35;;;6.50;;
55672;SDS011;41554;45.366;20.400;2022-10-26T00:40:10;59.88;;;7.10;;
55672;SDS011;41554;45.366;20.400;2022-10-26T00:42:37;16.70;;;6.90;;
55672;SDS011;41554;45.366;20.400;2022-10-26T00:45:19;10.43;;;6.82;;
55672;SDS011;41554;45.366;20.400;2022-10-26T00:47:46;9.00;;;6.63;;
55672;SDS011;41554;45.366;20.400;2022-10-26T00:50:20;7.47;;;6.00;;
55672;SDS011;41554;45.366;20.400;2022-10-26T00:52:47;7.80;;;5.90;;
55672;SDS011;41554;45.366;20.400;2022-10-26T00:55:13;9.00;;;6.00;;
55672;SDS011;41554;45.366;20.400;2022-10-26T00:57:45;7.65;;;6.85;;
55672;SDS011;41554;45.366;20.400;2022-10-26T01:00:11;7.47;;;6.70;;
55672;SDS011;41554;45.366;20.400;2022-10-26T01:02:37;6.55;;;5.95;;
55672;SDS011;41554;45.366;20.400;2022-10-26T01:05:04;11.75;;;7.38;;
55672;SDS011;41554;45.366;20.400;2022-10-26T01:07:31;6.47;;;5.30;;
55672;SDS011;41554;45.366;20.400;2022-10-26T01:09:57;25.38;;;6.40;;
55672;SDS011;41554;45.366;20.400;2022-10-26T01:12:24;21.08;;;5.97;;
55672;SDS011;41554;45.366;20.400;2022-10-26T01:14:50;9.38;;;6.38;;
55672;SDS011;41554;45.366;20.400;2022-10-26T01:22:32;19.15;;;5.90;;
55672;SDS011;41554;45.366;20.400;2022-10-26T01:27:36;7.90;;;4.32;;
55672;SDS011;41554;45.366;20.400;2022-10-26T01:37:42;7.85;;;6.28;;
55672;SDS011;41554;45.366;20.400;2022-10-26T01:40:10;5.85;;;5.18;;
55672;SDS011;41554;45.366;20.400;2022-10-26T01:42:41;8.25;;;5.28;;
55672;SDS011;41554;45.366;20.400;2022-10-26T01:45:09;5.60;;;4.40;;
55672;SDS011;41554;45.366;20.400;2022-10-26T01:47:37;9.15;;;6.03;;
55672;SDS011;41554;45.366;20.400;2022-10-26T01:50:04;6.97;;;4.82;;
55672;SDS011;41554;45.366;20.400;2022-10-26T01:52:30;7.30;;;5.70;;
55672;SDS011;41554;45.366;20.400;2022-10-26T01:55:00;7.07;;;6.38;;
55672;SDS011;41554;45.366;20.400;2022-10-26T01:57:26;9.33;;;5.60;;
55672;SDS011;41554;45.366;20.400;2022-10-26T02:00:12;6.03;;;5.30;;
55672;SDS011;41554;45.366;20.400;2022-10-26T02:07:45;18.63;;;7.57;;
55672;SDS011;41554;45.366;20.400;2022-10-26T02:12:48;13.43;;;5.75;;
55672;SDS011;41554;45.366;20.400;2022-10-26T02:17:50;8.18;;;6.35;;
55672;SDS011;41554;45.366;20.400;2022-10-26T02:20:21;6.75;;;5.25;;
55672;SDS011;41554;45.366;20.400;2022-10-26T02:22:49;6.57;;;5.88;;
55672;SDS011;41554;45.366;20.400;2022-10-26T02:25:22;5.50;;;4.50;;
55672;SDS011;41554;45.366;20.400;2022-10-26T02:27:53;9.77;;;7.28;;
55672;SDS011;41554;45.366;20.400;2022-10-26T02:30:20;15.18;;;7.63;;
55672;SDS011;41554;45.366;20.400;2022-10-26T02:32:50;8.32;;;6.18;;
55672;SDS011;41554;45.366;20.400;2022-10-26T02:35:18;16.23;;;5.97;;
55672;SDS011;41554;45.366;20.400;2022-10-26T02:37:46;7.15;;;5.72;;
55672;SDS011;41554;45.366;20.400;2022-10-26T02:40:13;6.85;;;5.60;;
55672;SDS011;41554;45.366;20.400;2022-10-26T02:42:41;6.15;;;5.35;;
55672;SDS011;41554;45.366;20.400;2022-10-26T02:45:11;5.78;;;5.18;;
55672;SDS011;41554;45.366;20.400;2022-10-26T02:47:39;5.57;;;5.03;;
55672;SDS011;41554;45.366;20.400;2022-10-26T02:50:05;6.88;;;5.53;;
55672;SDS011;41554;45.366;20.400;2022-10-26T02:52:44;6.63;;;5.03;;
55672;SDS011;41554;45.366;20.400;2022-10-26T02:55:22;5.93;;;5.32;;
55672;SDS011;41554;45.366;20.400;2022-10-26T02:57:51;9.70;;;5.57;;
55672;SDS011;41554;45.366;20.400;2022-10-26T03:00:19;6.05;;;5.43;;
55672;SDS011;41554;45.366;20.400;2022-10-26T03:02:49;6.53;;;5.82;;
55672;SDS011;41554;45.366;20.400;2022-10-26T03:05:23;15.13;;;9.80;;
55672;SDS011;41554;45.366;20.400;2022-10-26T03:07:50;10.73;;;9.30;;
55672;SDS011;41554;45.366;20.400;2022-10-26T03:10:16;7.70;;;6.28;;
55672;SDS011;41554;45.366;20.400;2022-10-26T03:12:42;23.55;;;11.48;;
55672;SDS011;41554;45.366;20.400;2022-10-26T03:15:08;22.17;;;19.20;;
55672;SDS011;41554;45.366;20.400;2022-10-26T03:17:34;33.67;;;11.68;;
55672;SDS011;41554;45.366;20.400;2022-10-26T03:20:00;15.38;;;9.45;;
55672;SDS011;41554;45.366;20.400;2022-10-26T03:22:26;18.13;;;12.75;;
55672;SDS011;41554;45.366;20.400;2022-10-26T03:24:52;33.25;;;11.48;;
55672;SDS011;41554;45.366;20.400;2022-10-26T03:27:18;10.75;;;9.68;;
55672;SDS011;41554;45.366;20.400;2022-10-26T03:29:44;12.70;;;9.48;;
55672;SDS011;41554;45.366;20.400;2022-10-26T03:32:10;25.77;;;9.05;;
55672;SDS011;41554;45.366;20.400;2022-10-26T03:34:36;16.90;;;8.25;;
55672;SDS011;41554;45.366;20.400;2022-10-26T03:37:02;8.15;;;5.88;;
55672;SDS011;41554;45.366;20.400;2022-10-26T03:39:28;19.42;;;6.75;;
55672;SDS011;41554;45.366;20.400;2022-10-26T03:41:55;7.40;;;6.63;;
55672;SDS011;41554;45.366;20.400;2022-10-26T03:44:21;8.88;;;6.72;;
55672;SDS011;41554;45.366;20.400;2022-10-26T03:46:47;6.13;;;5.53;;
55672;SDS011;41554;45.366;20.400;2022-10-26T03:49:13;7.75;;;6.10;;
55672;SDS011;41554;45.366;20.400;2022-10-26T03:51:39;8.38;;;5.82;;
55672;SDS011;41554;45.366;20.400;2022-10-26T03:54:05;9.13;;;7.28;;
55672;SDS011;41554;45.366;20.400;2022-10-26T03:56:32;9.52;;;6.13;;
55672;SDS011;41554;45.366;20.400;2022-10-26T03:58:58;8.02;;;7.00;;
55672;SDS011;41554;45.366;20.400;2022-10-26T04:01:24;7.38;;;6.57;;
55672;SDS011;41554;45.366;20.400;2022-10-26T04:03:50;10.32;;;7.25;;
55672;SDS011;41554;45.366;20.400;2022-10-26T04:06:16;7.97;;;6.03;;
55672;SDS011;41554;45.366;20.400;2022-10-26T04:08:42;7.18;;;6.10;;
55672;SDS011;41554;45.366;20.400;2022-10-26T04:11:08;8.50;;;6.78;;
55672;SDS011;41554;45.366;20.400;2022-10-26T04:13:34;10.07;;;7.10;;
55672;SDS011;41554;45.366;20.400;2022-10-26T04:16:00;6.60;;;5.85;;
55672;SDS011;41554;45.366;20.400;2022-10-26T04:18:26;7.25;;;6.00;;
55672;SDS011;41554;45.366;20.400;2022-10-26T04:20:52;6.80;;;5.93;;
55672;SDS011;41554;45.366;20.400;2022-10-26T04:23:18;7.07;;;5.57;;
55672;SDS011;41554;45.366;20.400;2022-10-26T04:25:44;7.35;;;5.53;;
55672;SDS011;41554;45.366;20.400;2022-10-26T04:28:11;6.80;;;6.13;;
55672;SDS011;41554;45.366;20.400;2022-10-26T04:30:37;7.63;;;6.50;;
55672;SDS011;41554;45.366;20.400;2022-10-26T04:33:04;14.15;;;6.50;;
55672;SDS011;41554;45.366;20.400;2022-10-26T04:35:31;9.93;;;7.53;;
55672;SDS011;41554;45.366;20.400;2022-10-26T04:38:01;18.75;;;6.72;;
55672;SDS011;41554;45.366;20.400;2022-10-26T04:40:27;9.70;;;7.05;;
55672;SDS011;41554;45.366;20.400;2022-10-26T04:42:54;9.50;;;7.50;;
55672;SDS011;41554;45.366;20.400;2022-10-26T04:45:20;9.00;;;6.78;;
55672;SDS011;41554;45.366;20.400;2022-10-26T04:47:46;80.20;;;30.65;;
55672;SDS011;41554;45.366;20.400;2022-10-26T04:50:12;136.63;;;41.20;;
55672;SDS011;41554;45.366;20.400;2022-10-26T04:52:38;105.35;;;44.10;;
55672;SDS011;41554;45.366;20.400;2022-10-26T04:55:05;113.38;;;56.70;;
55672;SDS011;41554;45.366;20.400;2022-10-26T04:57:32;110.50;;;50.08;;
55672;SDS011;41554;45.366;20.400;2022-10-26T04:59:58;124.60;;;56.60;;
55672;SDS011;41554;45.366;20.400;2022-10-26T05:02:25;85.43;;;39.83;;
55672;SDS011;41554;45.366;20.400;2022-10-26T05:04:51;66.47;;;35.10;;
55672;SDS011;41554;45.366;20.400;2022-10-26T05:07:17;61.22;;;35.55;;
55672;SDS011;41554;45.366;20.400;2022-10-26T05:09:43;79.10;;;30.38;;
55672;SDS011;41554;45.366;20.400;2022-10-26T05:12:09;32.65;;;22.10;;
55672;SDS011;41554;45.366;20.400;2022-10-26T05:14:35;42.55;;;22.25;;
55672;SDS011;41554;45.366;20.400;2022-10-26T05:17:01;41.90;;;21.98;;
55672;SDS011;41554;45.366;20.400;2022-10-26T05:19:27;62.00;;;21.50;;
55672;SDS011;41554;45.366;20.400;2022-10-26T05:21:53;40.95;;;22.60;;
55672;SDS011;41554;45.366;20.400;2022-10-26T05:24:19;61.17;;;28.65;;
55672;SDS011;41554;45.366;20.400;2022-10-26T05:26:45;68.35;;;33.90;;
55672;SDS011;41554;45.366;20.400;2022-10-26T05:29:11;65.03;;;34.10;;
55672;SDS011;41554;45.366;20.400;2022-10-26T05:31:37;94.82;;;46.50;;
55672;SDS011;41554;45.366;20.400;2022-10-26T05:34:03;73.13;;;44.15;;
55672;SDS011;41554;45.366;20.400;2022-10-26T05:36:29;71.80;;;38.95;;
55672;SDS011;41554;45.366;20.400;2022-10-26T05:38:56;80.43;;;40.13;;
55672;SDS011;41554;45.366;20.400;2022-10-26T05:41:23;55.28;;;35.08;;
55672;SDS011;41554;45.366;20.400;2022-10-26T05:43:49;63.17;;;34.28;;
55672;SDS011;41554;45.366;20.400;2022-10-26T05:46:15;57.83;;;34.25;;
55672;SDS011;41554;45.366;20.400;2022-10-26T05:48:41;45.78;;;31.27;;
55672;SDS011;41554;45.366;20.400;2022-10-26T05:51:07;48.60;;;29.38;;
55672;SDS011;41554;45.366;20.400;2022-10-26T05:53:34;37.97;;;23.45;;
55672;SDS011;41554;45.366;20.400;2022-10-26T05:56:00;36.28;;;20.30;;
55672;SDS011;41554;45.366;20.400;2022-10-26T05:58:26;33.05;;;16.52;;
55672;SDS011;41554;45.366;20.400;2022-10-26T06:06:03;16.23;;;11.45;;
55672;SDS011;41554;45.366;20.400;2022-10-26T06:08:29;17.52;;;11.23;;
55672;SDS011;41554;45.366;20.400;2022-10-26T06:10:56;13.45;;;9.85;;
55672;SDS011;41554;45.366;20.400;2022-10-26T06:13:27;19.60;;;10.60;;
55672;SDS011;41554;45.366;20.400;2022-10-26T06:18:57;25.90;;;12.50;;
55672;SDS011;41554;45.366;20.400;2022-10-26T06:24:07;33.28;;;14.85;;
55672;SDS011;41554;45.366;20.400;2022-10-26T06:31:44;22.63;;;14.73;;
55672;SDS011;41554;45.366;20.400;2022-10-26T06:34:10;63.38;;;34.65;;
55672;SDS011;41554;45.366;20.400;2022-10-26T06:36:37;65.78;;;48.65;;
55672;SDS011;41554;45.366;20.400;2022-10-26T06:39:04;47.88;;;30.20;;
55672;SDS011;41554;45.366;20.400;2022-10-26T06:41:32;36.10;;;22.80;;
55672;SDS011;41554;45.366;20.400;2022-10-26T06:43:58;33.85;;;20.38;;
55672;SDS011;41554;45.366;20.400;2022-10-26T06:51:21;22.13;;;12.02;;
55672;SDS011;41554;45.366;20.400;2022-10-26T06:54:12;29.60;;;13.95;;
55672;SDS011;41554;45.366;20.400;2022-10-26T06:56:34;17.88;;;14.55;;
55672;SDS011;41554;45.366;20.400;2022-10-26T06:59:03;33.53;;;14.02;;
55672;SDS011;41554;45.366;20.400;2022-10-26T07:01:31;14.65;;;10.43;;
55672;SDS011;41554;45.366;20.400;2022-10-26T07:03:57;23.35;;;10.65;;
55672;SDS011;41554;45.366;20.400;2022-10-26T07:06:23;13.82;;;9.73;;
55672;SDS011;41554;45.366;20.400;2022-10-26T07:08:49;13.48;;;8.85;;
55672;SDS011;41554;45.366;20.400;2022-10-26T07:11:16;12.23;;;9.85;;
55672;SDS011;41554;45.366;20.400;2022-10-26T07:13:42;14.75;;;10.20;;
55672;SDS011;41554;45.366;20.400;2022-10-26T07:16:08;14.23;;;10.75;;
55672;SDS011;41554;45.366;20.400;2022-10-26T07:18:34;14.02;;;10.02;;
55672;SDS011;41554;45.366;20.400;2022-10-26T07:21:00;21.52;;;11.05;;
55672;SDS011;41554;45.366;20.400;2022-10-26T07:23:26;14.60;;;10.15;;
55672;SDS011;41554;45.366;20.400;2022-10-26T07:25:52;11.18;;;8.55;;
55672;SDS011;41554;45.366;20.400;2022-10-26T07:28:18;17.08;;;8.25;;
55672;SDS011;41554;45.366;20.400;2022-10-26T07:30:44;15.35;;;8.75;;
55672;SDS011;41554;45.366;20.400;2022-10-26T07:33:11;20.55;;;10.68;;
55672;SDS011;41554;45.366;20.400;2022-10-26T07:35:39;19.52;;;8.98;;
55672;SDS011;41554;45.366;20.400;2022-10-26T07:38:05;14.57;;;11.00;;
55672;SDS011;41554;45.366;20.400;2022-10-26T07:40:32;13.15;;;10.75;;
55672;SDS011;41554;45.366;20.400;2022-10-26T07:42:59;12.73;;;9.13;;
55672;SDS011;41554;45.366;20.400;2022-10-26T07:45:26;13.98;;;11.60;;
55672;SDS011;41554;45.366;20.400;2022-10-26T07:47:55;14.00;;;10.15;;
55672;SDS011;41554;45.366;20.400;2022-10-26T07:50:21;12.32;;;9.15;;
55672;SDS011;41554;45.366;20.400;2022-10-26T07:52:47;13.45;;;11.50;;
55672;SDS011;41554;45.366;20.400;2022-10-26T07:55:13;16.98;;;11.88;;
55672;SDS011;41554;45.366;20.400;2022-10-26T07:57:40;18.30;;;13.73;;
55672;SDS011;41554;45.366;20.400;2022-10-26T08:00:09;15.05;;;11.63;;
55672;SDS011;41554;45.366;20.400;2022-10-26T08:02:36;18.23;;;12.52;;
55672;SDS011;41554;45.366;20.400;2022-10-26T08:05:02;19.70;;;13.45;;
55672;SDS011;41554;45.366;20.400;2022-10-26T08:07:28;20.77;;;15.10;;
55672;SDS011;41554;45.366;20.400;2022-10-26T08:09:54;25.02;;;14.20;;
55672;SDS011;41554;45.366;20.400;2022-10-26T08:12:20;24.50;;;16.58;;
55672;SDS011;41554;45.366;20.400;2022-10-26T08:14:47;23.67;;;16.10;;
55672;SDS011;41554;45.366;20.400;2022-10-26T08:17:13;41.83;;;27.48;;
55672;SDS011;41554;45.366;20.400;2022-10-26T08:19:39;44.42;;;31.88;;
55672;SDS011;41554;45.366;20.400;2022-10-26T08:22:05;81.68;;;51.03;;
55672;SDS011;41554;45.366;20.400;2022-10-26T08:24:31;56.15;;;36.00;;
55672;SDS011;41554;45.366;20.400;2022-10-26T08:26:58;39.67;;;27.98;;
55672;SDS011;41554;45.366;20.400;2022-10-26T08:29:24;29.73;;;19.08;;
55672;SDS011;41554;45.366;20.400;2022-10-26T08:31:53;31.13;;;20.60;;
55672;SDS011;41554;45.366;20.400;2022-10-26T08:34:24;25.38;;;18.42;;
55672;SDS011;41554;45.366;20.400;2022-10-26T08:36:50;33.72;;;20.20;;
55672;SDS011;41554;45.366;20.400;2022-10-26T08:39:16;27.10;;;21.58;;
55672;SDS011;41554;45.366;20.400;2022-10-26T08:41:43;29.30;;;21.55;;
55672;SDS011;41554;45.366;20.400;2022-10-26T08:44:21;31.50;;;20.65;;
55672;SDS011;41554;45.366;20.400;2022-10-26T08:46:50;34.92;;;20.23;;
55672;SDS011;41554;45.366;20.400;2022-10-26T08:49:19;33.80;;;21.63;;
55672;SDS011;41554;45.366;20.400;2022-10-26T08:51:46;36.65;;;21.77;;
55672;SDS011;41554;45.366;20.400;2022-10-26T08:54:19;33.45;;;22.50;;
55672;SDS011;41554;45.366;20.400;2022-10-26T08:56:55;28.75;;;23.00;;
55672;SDS011;41554;45.366;20.400;2022-10-26T09:02:13;27.08;;;20.80;;
55672;SDS011;41554;45.366;20.400;2022-10-26T09:04:40;28.08;;;19.38;;
55672;SDS011;41554;45.366;20.400;2022-10-26T09:09:55;33.65;;;22.98;;
55672;SDS011;41554;45.366;20.400;2022-10-26T09:24:55;56.92;;;43.30;;
55672;SDS011;41554;45.366;20.400;2022-10-26T09:27:28;51.00;;;39.45;;
55672;SDS011;41554;45.366;20.400;2022-10-26T09:29:56;52.28;;;35.75;;
55672;SDS011;41554;45.366;20.400;2022-10-26T09:32:45;62.20;;;40.88;;
55672;SDS011;41554;45.366;20.400;2022-10-26T09:35:14;49.03;;;39.72;;
55672;SDS011;41554;45.366;20.400;2022-10-26T09:37:42;103.13;;;85.00;;
55672;SDS011;41554;45.366;20.400;2022-10-26T09:40:14;67.30;;;55.20;;
55672;SDS011;41554;45.366;20.400;2022-10-26T09:43:00;61.22;;;44.95;;
55672;SDS011;41554;45.366;20.400;2022-10-26T09:48:03;38.97;;;31.70;;
55672;SDS011;41554;45.366;20.400;2022-10-26T09:50:34;23.50;;;17.95;;
55672;SDS011;41554;45.366;20.400;2022-10-26T09:55:27;20.25;;;15.35;;
55672;SDS011;41554;45.366;20.400;2022-10-26T09:57:55;19.95;;;12.40;;
55672;SDS011;41554;45.366;20.400;2022-10-26T10:00:21;16.45;;;12.88;;
55672;SDS011;41554;45.366;20.400;2022-10-26T10:02:55;19.40;;;15.98;;
55672;SDS011;41554;45.366;20.400;2022-10-26T10:10:36;36.90;;;25.77;;
55672;SDS011;41554;45.366;20.400;2022-10-26T10:13:15;18.17;;;12.32;;
55672;SDS011;41554;45.366;20.400;2022-10-26T10:15:49;19.35;;;10.07;;
55672;SDS011;41554;45.366;20.400;2022-10-26T10:18:17;14.38;;;11.30;;
55672;SDS011;41554;45.366;20.400;2022-10-26T10:20:49;15.20;;;13.23;;
55672;SDS011;41554;45.366;20.400;2022-10-26T10:23:30;16.00;;;11.02;;
55672;SDS011;41554;45.366;20.400;2022-10-26T10:26:00;14.88;;;11.45;;
55672;SDS011;41554;45.366;20.400;2022-10-26T10:28:27;12.15;;;10.45;;
55672;SDS011;41554;45.366;20.400;2022-10-26T10:30:54;12.68;;;11.35;;
55672;SDS011;41554;45.366;20.400;2022-10-26T10:33:23;14.43;;;10.35;;
55672;SDS011;41554;45.366;20.400;2022-10-26T10:35:56;16.58;;;11.75;;
55672;SDS011;41554;45.366;20.400;2022-10-26T10:38:23;13.18;;;11.73;;
55672;SDS011;41554;45.366;20.400;2022-10-26T10:40:53;26.23;;;10.18;;
55672;SDS011;41554;45.366;20.400;2022-10-26T10:43:19;9.43;;;8.43;;
55672;SDS011;41554;45.366;20.400;2022-10-26T10:45:50;17.30;;;11.23;;
55672;SDS011;41554;45.366;20.400;2022-10-26T10:48:18;15.05;;;12.15;;
55672;SDS011;41554;45.366;20.400;2022-10-26T10:55:55;19.85;;;14.30;;
55672;SDS011;41554;45.366;20.400;2022-10-26T10:58:26;18.60;;;13.23;;
55672;SDS011;41554;45.366;20.400;2022-10-26T11:00:55;9.50;;;6.97;;
55672;SDS011;41554;45.366;20.400;2022-10-26T11:08:28;8.85;;;6.45;;
55672;SDS011;41554;45.366;20.400;2022-10-26T11:13:23;15.32;;;7.25;;
55672;SDS011;41554;45.366;20.400;2022-10-26T11:15:51;7.53;;;6.07;;
55672;SDS011;41554;45.366;20.400;2022-10-26T11:18:30;7.80;;;5.97;;
55672;SDS011;41554;45.366;20.400;2022-10-26T11:21:00;9.35;;;4.82;;
55672;SDS011;41554;45.366;20.400;2022-10-26T11:25:58;19.23;;;6.90;;
55672;SDS011;41554;45.366;20.400;2022-10-26T11:31:02;10.18;;;5.55;;
55672;SDS011;41554;45.366;20.400;2022-10-26T11:33:31;9.65;;;6.68;;
55672;SDS011;41554;45.366;20.400;2022-10-26T11:36:07;5.47;;;3.75;;
55672;SDS011;41554;45.366;20.400;2022-10-26T11:38:45;6.93;;;3.97;;
55672;SDS011;41554;45.366;20.400;2022-10-26T11:43:42;5.05;;;2.95;;
55672;SDS011;41554;45.366;20.400;2022-10-26T11:46:12;5.55;;;4.47;;
55672;SDS011;41554;45.366;20.400;2022-10-26T11:48:43;11.50;;;4.60;;
55672;SDS011;41554;45.366;20.400;2022-10-26T11:51:15;5.88;;;4.40;;
55672;SDS011;41554;45.366;20.400;2022-10-26T11:53:43;5.82;;;4.50;;
55672;SDS011;41554;45.366;20.400;2022-10-26T11:56:19;9.25;;;3.45;;
55672;SDS011;41554;45.366;20.400;2022-10-26T11:58:46;9.57;;;4.80;;
55672;SDS011;41554;45.366;20.400;2022-10-26T12:01:13;12.05;;;4.78;;
55672;SDS011;41554;45.366;20.400;2022-10-26T12:03:43;8.27;;;5.90;;
55672;SDS011;41554;45.366;20.400;2022-10-26T12:06:11;10.52;;;6.20;;
55672;SDS011;41554;45.366;20.400;2022-10-26T12:08:46;18.08;;;7.53;;
55672;SDS011;41554;45.366;20.400;2022-10-26T12:13:42;12.13;;;7.43;;
55672;SDS011;41554;45.366;20.400;2022-10-26T12:18:43;12.07;;;6.93;;
55672;SDS011;41554;45.366;20.400;2022-10-26T12:21:11;11.32;;;7.82;;
55672;SDS011;41554;45.366;20.400;2022-10-26T12:23:58;12.23;;;9.60;;
55672;SDS011;41554;45.366;20.400;2022-10-26T12:34:01;20.08;;;10.38;;
55672;SDS011;41554;45.366;20.400;2022-10-26T12:41:54;20.58;;;10.30;;
55672;SDS011;41554;45.366;20.400;2022-10-26T12:44:36;14.98;;;8.55;;
55672;SDS011;41554;45.366;20.400;2022-10-26T12:47:04;14.45;;;9.27;;
55672;SDS011;41554;45.366;20.400;2022-10-26T12:52:19;25.88;;;9.15;;
55672;SDS011;41554;45.366;20.400;2022-10-26T12:57:31;19.95;;;7.93;;
55672;SDS011;41554;45.366;20.400;2022-10-26T13:07:40;14.00;;;6.72;;
55672;SDS011;41554;45.366;20.400;2022-10-26T13:12:46;8.55;;;5.38;;
55672;SDS011;41554;45.366;20.400;2022-10-26T13:17:52;12.60;;;6.55;;
55672;SDS011;41554;45.366;20.400;2022-10-26T13:20:18;5.10;;;4.25;;
55672;SDS011;41554;45.366;20.400;2022-10-26T13:22:45;12.63;;;4.45;;
55672;SDS011;41554;45.366;20.400;2022-10-26T13:25:15;9.00;;;3.97;;
55672;SDS011;41554;45.366;20.400;2022-10-26T13:27:44;6.03;;;3.15;;
55672;SDS011;41554;45.366;20.400;2022-10-26T13:32:57;5.60;;;3.60;;
55672;SDS011;41554;45.366;20.400;2022-10-26T13:35:24;5.97;;;3.75;;
55672;SDS011;41554;45.366;20.400;2022-10-26T13:37:52;13.07;;;4.70;;
55672;SDS011;41554;45.366;20.400;2022-10-26T13:40:22;11.25;;;4.72;;
55672;SDS011;41554;45.366;20.400;2022-10-26T13:42:56;8.07;;;5.68;;
55672;SDS011;41554;45.366;20.400;2022-10-26T13:45:29;9.93;;;5.45;;
55672;SDS011;41554;45.366;20.400;2022-10-26T13:50:31;9.63;;;6.18;;
55672;SDS011;41554;45.366;20.400;2022-10-26T13:52:59;16.55;;;6.25;;
55672;SDS011;41554;45.366;20.400;2022-10-26T13:55:31;13.18;;;6.22;;
55672;SDS011;41554;45.366;20.400;2022-10-26T14:00:33;13.32;;;6.35;;
55672;SDS011;41554;45.366;20.400;2022-10-26T14:03:10;12.18;;;7.43;;
55672;SDS011;41554;45.366;20.400;2022-10-26T14:05:39;11.18;;;7.93;;
55672;SDS011;41554;45.366;20.400;2022-10-26T14:08:05;11.00;;;7.60;;
55672;SDS011;41554;45.366;20.400;2022-10-26T14:10:33;13.15;;;8.30;;
55672;SDS011;41554;45.366;20.400;2022-10-26T14:13:01;12.07;;;8.40;;
55672;SDS011;41554;45.366;20.400;2022-10-26T14:15:31;20.48;;;10.57;;
55672;SDS011;41554;45.366;20.400;2022-10-26T14:17:59;30.02;;;9.73;;
55672;SDS011;41554;45.366;20.400;2022-10-26T14:20:26;11.45;;;8.27;;
55672;SDS011;41554;45.366;20.400;2022-10-26T14:22:53;11.85;;;9.02;;
55672;SDS011;41554;45.366;20.400;2022-10-26T14:25:23;12.40;;;8.60;;
55672;SDS011;41554;45.366;20.400;2022-10-26T14:27:50;11.73;;;8.55;;
55672;SDS011;41554;45.366;20.400;2022-10-26T14:30:23;14.80;;;8.82;;
55672;SDS011;41554;45.366;20.400;2022-10-26T14:32:50;13.82;;;8.23;;
55672;SDS011;41554;45.366;20.400;2022-10-26T14:35:18;17.13;;;10.55;;
55672;SDS011;41554;45.366;20.400;2022-10-26T14:40:16;29.75;;;11.20;;
55672;SDS011;41554;45.366;20.400;2022-10-26T14:42:43;31.20;;;12.70;;
55672;SDS011;41554;45.366;20.400;2022-10-26T14:45:21;17.00;;;11.30;;
55672;SDS011;41554;45.366;20.400;2022-10-26T14:47:47;26.15;;;12.77;;
55672;SDS011;41554;45.366;20.400;2022-10-26T14:50:20;19.23;;;13.68;;
55672;SDS011;41554;45.366;20.400;2022-10-26T14:52:50;19.67;;;12.98;;
55672;SDS011;41554;45.366;20.400;2022-10-26T14:55:17;27.08;;;15.43;;
55672;SDS011;41554;45.366;20.400;2022-10-26T14:57:44;26.13;;;14.52;;
55672;SDS011;41554;45.366;20.400;2022-10-26T15:02:37;22.88;;;15.50;;
55672;SDS011;41554;45.366;20.400;2022-10-26T15:05:15;23.00;;;15.80;;
55672;SDS011;41554;45.366;20.400;2022-10-26T15:07:42;22.30;;;15.85;;
55672;SDS011;41554;45.366;20.400;2022-10-26T15:12:54;29.00;;;17.05;;
55672;SDS011;41554;45.366;20.400;2022-10-26T15:15:20;20.08;;;13.90;;
55672;SDS011;41554;45.366;20.400;2022-10-26T15:17:54;18.40;;;12.38;;
55672;SDS011;41554;45.366;20.400;2022-10-26T15:20:21;17.90;;;12.35;;
55672;SDS011;41554;45.366;20.400;2022-10-26T15:22:49;17.83;;;11.13;;
55672;SDS011;41554;45.366;20.400;2022-10-26T15:25:16;16.33;;;9.75;;
55672;SDS011;41554;45.366;20.400;2022-10-26T15:27:45;15.55;;;8.20;;
55672;SDS011;41554;45.366;20.400;2022-10-26T15:30:24;14.68;;;8.80;;
55672;SDS011;41554;45.366;20.400;2022-10-26T15:32:51;14.25;;;8.45;;
55672;SDS011;41554;45.366;20.400;2022-10-26T15:37:44;8.90;;;6.93;;
55672;SDS011;41554;45.366;20.400;2022-10-26T15:40:10;11.10;;;6.88;;
55672;SDS011;41554;45.366;20.400;2022-10-26T15:42:37;9.70;;;7.80;;
55672;SDS011;41554;45.366;20.400;2022-10-26T15:45:04;27.20;;;7.60;;
55672;SDS011;41554;45.366;20.400;2022-10-26T15:47:38;14.88;;;7.53;;
55672;SDS011;41554;45.366;20.400;2022-10-26T15:50:04;12.07;;;7.97;;
55672;SDS011;41554;45.366;20.400;2022-10-26T15:52:30;14.25;;;8.50;;
55672;SDS011;41554;45.366;20.400;2022-10-26T15:54:57;19.75;;;7.78;;
55672;SDS011;41554;45.366;20.400;2022-10-26T15:57:23;8.90;;;6.65;;
55672;SDS011;41554;45.366;20.400;2022-10-26T15:59:50;12.55;;;6.93;;
55672;SDS011;41554;45.366;20.400;2022-10-26T16:02:16;10.55;;;7.50;;
55672;SDS011;41554;45.366;20.400;2022-10-26T16:04:42;24.45;;;8.80;;
55672;SDS011;41554;45.366;20.400;2022-10-26T16:07:12;20.98;;;9.05;;
55672;SDS011;41554;45.366;20.400;2022-10-26T16:12:05;9.85;;;8.45;;
55672;SDS011;41554;45.366;20.400;2022-10-26T16:14:31;8.05;;;7.22;;
55672;SDS011;41554;45.366;20.400;2022-10-26T16:16:57;10.52;;;7.50;;
55672;SDS011;41554;45.366;20.400;2022-10-26T16:19:23;17.83;;;9.10;;
55672;SDS011;41554;45.366;20.400;2022-10-26T16:21:49;22.85;;;8.32;;
55672;SDS011;41554;45.366;20.400;2022-10-26T16:24:16;22.45;;;9.77;;
55672;SDS011;41554;45.366;20.400;2022-10-26T16:26:42;15.65;;;11.07;;
55672;SDS011;41554;45.366;20.400;2022-10-26T16:29:08;23.52;;;13.05;;
55672;SDS011;41554;45.366;20.400;2022-10-26T16:31:34;17.15;;;11.07;;
55672;SDS011;41554;45.366;20.400;2022-10-26T16:34:00;16.90;;;11.55;;
55672;SDS011;41554;45.366;20.400;2022-10-26T16:36:26;24.67;;;10.43;;
55672;SDS011;41554;45.366;20.400;2022-10-26T16:38:52;16.23;;;9.75;;
55672;SDS011;41554;45.366;20.400;2022-10-26T16:41:18;21.20;;;10.95;;
55672;SDS011;41554;45.366;20.400;2022-10-26T16:43:44;14.40;;;9.30;;
55672;SDS011;41554;45.366;20.400;2022-10-26T16:46:12;16.27;;;12.73;;
55672;SDS011;41554;45.366;20.400;2022-10-26T16:48:38;12.88;;;9.25;;
55672;SDS011;41554;45.366;20.400;2022-10-26T16:51:08;18.15;;;13.00;;
55672;SDS011;41554;45.366;20.400;2022-10-26T16:56:04;19.13;;;11.48;;
55672;SDS011;41554;45.366;20.400;2022-10-26T16:58:31;30.65;;;13.55;;
55672;SDS011;41554;45.366;20.400;2022-10-26T17:00:57;20.85;;;14.30;;